SIA1001 VRMM-VCBI
Flight info
| Callsign | SIA1001 |
|---|---|
| Flight time | N/A |
| Altitude | 31000 |
| Route | HOKEY1A HOKEY M512 ANIVE DCT LALUM |
| Aircraft | B737/M-SIA1001/SIA |
Departure
| Time | N/A |
|---|---|
| Airport | Velana International Airport (VRMM) |
Arrival
| Time | 2026-04-26 08:19 |
|---|---|
| Airport | Bandaranaike International Colombo Airport (VCBI) |
| Time | Latitude | Longitude | Altitude | Speed | Heading |
|---|---|---|---|---|---|
| 2026-04-26 07:39 | 5.58877 | 77.08849 | 30860 ft | 457 kts | 71° |
| 2026-04-26 07:39 | 5.61099 | 77.14834 | 30861 ft | 457 kts | 71° |
| 2026-04-26 07:40 | 5.63320 | 77.20817 | 30861 ft | 457 kts | 71° |
| 2026-04-26 07:40 | 5.65534 | 77.26786 | 30860 ft | 457 kts | 71° |
| 2026-04-26 07:41 | 5.66633 | 77.29749 | 30858 ft | 456 kts | 71° |
| 2026-04-26 07:42 | 5.68276 | 77.34179 | 30859 ft | 456 kts | 71° |
| 2026-04-26 07:42 | 5.70498 | 77.40172 | 30860 ft | 456 kts | 71° |
| 2026-04-26 07:43 | 5.72698 | 77.46108 | 30860 ft | 456 kts | 71° |
| 2026-04-26 07:43 | 5.74910 | 77.52080 | 30858 ft | 456 kts | 71° |
| 2026-04-26 07:44 | 5.77123 | 77.58057 | 30861 ft | 456 kts | 71° |
| 2026-04-26 07:44 | 5.79323 | 77.64000 | 30859 ft | 455 kts | 71° |
| 2026-04-26 07:45 | 5.81532 | 77.69969 | 30856 ft | 455 kts | 71° |
| 2026-04-26 07:45 | 5.83732 | 77.75918 | 30857 ft | 456 kts | 71° |
| 2026-04-26 07:46 | 5.85950 | 77.81915 | 30857 ft | 456 kts | 71° |
| 2026-04-26 07:46 | 5.88146 | 77.87857 | 30857 ft | 456 kts | 71° |
| 2026-04-26 07:47 | 5.90356 | 77.93836 | 30857 ft | 456 kts | 71° |
| 2026-04-26 07:47 | 5.92565 | 77.99816 | 30858 ft | 456 kts | 71° |
| 2026-04-26 07:48 | 5.94771 | 78.05792 | 30859 ft | 456 kts | 71° |
| 2026-04-26 07:48 | 5.96968 | 78.11745 | 30856 ft | 456 kts | 71° |
| 2026-04-26 07:49 | 5.99164 | 78.17698 | 30858 ft | 455 kts | 71° |
| 2026-04-26 07:49 | 6.01374 | 78.23689 | 30853 ft | 455 kts | 71° |
| 2026-04-26 07:50 | 6.04661 | 78.32605 | 30855 ft | 455 kts | 71° |
| 2026-04-26 07:50 | 6.06866 | 78.38590 | 30851 ft | 455 kts | 71° |
| 2026-04-26 07:51 | 6.09060 | 78.44547 | 30852 ft | 455 kts | 71° |
| 2026-04-26 07:51 | 6.11248 | 78.50491 | 30854 ft | 455 kts | 71° |
| 2026-04-26 07:52 | 6.13604 | 78.56426 | 30834 ft | 457 kts | 60° |
| 2026-04-26 07:52 | 6.15564 | 78.58911 | 30854 ft | 460 kts | 44° |
| 2026-04-26 07:52 | 6.18030 | 78.60920 | 30870 ft | 461 kts | 39° |
| 2026-04-26 07:53 | 6.23165 | 78.64808 | 30854 ft | 462 kts | 38° |
| 2026-04-26 07:53 | 6.28271 | 78.68723 | 30853 ft | 462 kts | 39° |
| 2026-04-26 07:54 | 6.33344 | 78.72676 | 30852 ft | 462 kts | 39° |
| 2026-04-26 07:54 | 6.35904 | 78.74679 | 30581 ft | 465 kts | 39° |
| 2026-04-26 07:54 | 6.38457 | 78.76673 | 30109 ft | 463 kts | 39° |
| 2026-04-26 07:55 | 6.40974 | 78.78651 | 29513 ft | 461 kts | 41° |
| 2026-04-26 07:55 | 6.43219 | 78.80918 | 28883 ft | 460 kts | 51° |
| 2026-04-26 07:55 | 6.45236 | 78.83433 | 28282 ft | 459 kts | 53° |
| 2026-04-26 07:55 | 6.47174 | 78.85957 | 27689 ft | 459 kts | 53° |
| 2026-04-26 07:56 | 6.49143 | 78.88520 | 27095 ft | 459 kts | 53° |
| 2026-04-26 07:56 | 6.51106 | 78.91035 | 26527 ft | 459 kts | 52° |
| 2026-04-26 07:56 | 6.53103 | 78.93554 | 25966 ft | 460 kts | 52° |
| 2026-04-26 07:56 | 6.55097 | 78.96045 | 25415 ft | 463 kts | 52° |
| 2026-04-26 07:57 | 6.57142 | 78.98590 | 24866 ft | 460 kts | 51° |
| 2026-04-26 07:57 | 6.59136 | 79.01070 | 24332 ft | 454 kts | 51° |
| 2026-04-26 07:57 | 6.61104 | 79.03521 | 23810 ft | 450 kts | 51° |
| 2026-04-26 07:57 | 6.63051 | 79.05951 | 23266 ft | 446 kts | 51° |
| 2026-04-26 07:58 | 6.64990 | 79.08404 | 22655 ft | 442 kts | 52° |
| 2026-04-26 07:58 | 6.66869 | 79.10800 | 22054 ft | 439 kts | 52° |
| 2026-04-26 07:58 | 6.68768 | 79.13229 | 21454 ft | 436 kts | 52° |
| 2026-04-26 07:58 | 6.70631 | 79.15613 | 20884 ft | 433 kts | 52° |
| 2026-04-26 07:59 | 6.71880 | 79.17209 | 20506 ft | 431 kts | 52° |
| 2026-04-26 07:59 | 6.73095 | 79.18761 | 20132 ft | 429 kts | 52° |
| 2026-04-26 07:59 | 6.74950 | 79.21129 | 19579 ft | 426 kts | 52° |
| 2026-04-26 08:00 | 6.81365 | 79.29313 | 17621 ft | 414 kts | 52° |
| 2026-04-26 08:00 | 6.83138 | 79.31577 | 17025 ft | 409 kts | 52° |
| 2026-04-26 08:01 | 6.83952 | 79.32615 | 16754 ft | 407 kts | 52° |
| 2026-04-26 08:01 | 6.85692 | 79.34836 | 16167 ft | 400 kts | 52° |
| 2026-04-26 08:02 | 6.87389 | 79.37004 | 15598 ft | 393 kts | 52° |
| 2026-04-26 08:02 | 6.88511 | 79.38436 | 15222 ft | 388 kts | 52° |
| 2026-04-26 08:02 | 6.90722 | 79.41260 | 14488 ft | 382 kts | 52° |
| 2026-04-26 08:02 | 6.92376 | 79.43372 | 13946 ft | 378 kts | 52° |
| 2026-04-26 08:03 | 6.94044 | 79.45368 | 13375 ft | 375 kts | 46° |
| 2026-04-26 08:03 | 6.96046 | 79.47073 | 12798 ft | 373 kts | 39° |
| 2026-04-26 08:03 | 6.98085 | 79.48647 | 12182 ft | 370 kts | 38° |
| 2026-04-26 08:03 | 7.00134 | 79.50207 | 11595 ft | 363 kts | 38° |
| 2026-04-26 08:04 | 7.02112 | 79.51725 | 11024 ft | 356 kts | 39° |
| 2026-04-26 08:04 | 7.04052 | 79.53229 | 10491 ft | 350 kts | 39° |
| 2026-04-26 08:04 | 7.05952 | 79.54715 | 10251 ft | 335 kts | 39° |
| 2026-04-26 08:04 | 7.07734 | 79.56116 | 10137 ft | 318 kts | 39° |
| 2026-04-26 08:05 | 7.09419 | 79.57445 | 10086 ft | 301 kts | 39° |
| 2026-04-26 08:05 | 7.11018 | 79.58708 | 10050 ft | 284 kts | 40° |
| 2026-04-26 08:05 | 7.12563 | 79.59930 | 9788 ft | 279 kts | 40° |
| 2026-04-26 08:05 | 7.14084 | 79.61135 | 9536 ft | 272 kts | 40° |
| 2026-04-26 08:06 | 7.15552 | 79.62297 | 9280 ft | 267 kts | 40° |
| 2026-04-26 08:06 | 7.16994 | 79.63439 | 9027 ft | 262 kts | 40° |
| 2026-04-26 08:06 | 7.17947 | 79.64194 | 8851 ft | 259 kts | 40° |
| 2026-04-26 08:06 | 7.19346 | 79.65302 | 8610 ft | 255 kts | 40° |
| 2026-04-26 08:07 | 7.20742 | 79.66407 | 8363 ft | 251 kts | 40° |
| 2026-04-26 08:07 | 7.22550 | 79.67839 | 8029 ft | 246 kts | 40° |
| 2026-04-26 08:07 | 7.23429 | 79.68534 | 7870 ft | 244 kts | 39° |
| 2026-04-26 08:07 | 7.25190 | 79.69930 | 7552 ft | 240 kts | 40° |
| 2026-04-26 08:08 | 7.26061 | 79.70623 | 7387 ft | 238 kts | 40° |
| 2026-04-26 08:08 | 7.27775 | 79.71985 | 7077 ft | 234 kts | 40° |
| 2026-04-26 08:08 | 7.28616 | 79.72654 | 6946 ft | 228 kts | 40° |
| 2026-04-26 08:08 | 7.30243 | 79.73947 | 6653 ft | 218 kts | 40° |
| 2026-04-26 08:09 | 7.31407 | 79.74870 | 6425 ft | 209 kts | 40° |
| 2026-04-26 08:09 | 7.32535 | 79.75762 | 6175 ft | 201 kts | 40° |
| 2026-04-26 08:09 | 7.33611 | 79.76612 | 5924 ft | 195 kts | 40° |
| 2026-04-26 08:09 | 7.34666 | 79.77445 | 5671 ft | 187 kts | 40° |
| 2026-04-26 08:10 | 7.35670 | 79.78239 | 5435 ft | 183 kts | 40° |
| 2026-04-26 08:10 | 7.36672 | 79.79031 | 5184 ft | 182 kts | 39° |
| 2026-04-26 08:10 | 7.37664 | 79.79816 | 4952 ft | 182 kts | 39° |
| 2026-04-26 08:10 | 7.38660 | 79.80603 | 4725 ft | 182 kts | 39° |
| 2026-04-26 08:11 | 7.39661 | 79.81393 | 4467 ft | 179 kts | 39° |
| 2026-04-26 08:11 | 7.40591 | 79.82193 | 4198 ft | 173 kts | 52° |
| 2026-04-26 08:11 | 7.40964 | 79.83296 | 3946 ft | 169 kts | 90° |
| 2026-04-26 08:11 | 7.40573 | 79.84378 | 3722 ft | 169 kts | 123° |
| 2026-04-26 08:12 | 7.39886 | 79.85357 | 3499 ft | 173 kts | 122° |
| 2026-04-26 08:12 | 7.39194 | 79.86367 | 3275 ft | 176 kts | 123° |
| 2026-04-26 08:12 | 7.38731 | 79.87035 | 3111 ft | 175 kts | 123° |
| 2026-04-26 08:12 | 7.38039 | 79.88026 | 3010 ft | 173 kts | 123° |
| 2026-04-26 08:13 | 7.37575 | 79.88687 | 2980 ft | 172 kts | 123° |
| 2026-04-26 08:13 | 7.36650 | 79.89999 | 2975 ft | 172 kts | 123° |
| 2026-04-26 08:15 | 7.32565 | 79.96902 | 2476 ft | 172 kts | 118° |
| 2026-04-26 08:15 | 7.29289 | 79.96923 | 2365 ft | 153 kts | 216° |
| 2026-04-26 08:16 | 7.28440 | 79.96296 | 2165 ft | 148 kts | 218° |
| 2026-04-26 08:16 | 7.27638 | 79.95685 | 1980 ft | 143 kts | 219° |
| 2026-04-26 08:16 | 7.26830 | 79.95067 | 1818 ft | 145 kts | 219° |
| 2026-04-26 08:16 | 7.26031 | 79.94459 | 1617 ft | 145 kts | 219° |
| 2026-04-26 08:17 | 7.25226 | 79.93842 | 1507 ft | 143 kts | 219° |
| 2026-04-26 08:17 | 7.24433 | 79.93231 | 1301 ft | 146 kts | 220° |
| 2026-04-26 08:17 | 7.23116 | 79.92215 | 996 ft | 141 kts | 219° |
| 2026-04-26 08:18 | 7.22095 | 79.91431 | 730 ft | 137 kts | 221° |
| 2026-04-26 08:18 | 7.21333 | 79.90869 | 562 ft | 133 kts | 222° |
| 2026-04-26 08:18 | 7.20849 | 79.90479 | 409 ft | 136 kts | 223° |
| 2026-04-26 08:18 | 7.19839 | 79.89696 | 186 ft | 136 kts | 221° |
| 2026-04-26 08:19 | 7.19092 | 79.89125 | 37 ft | 131 kts | 221° |
| 2026-04-26 08:19 | 7.17866 | 79.88229 | 29 ft | 14 kts | 149° |
| 2026-04-26 08:20 | 7.17838 | 79.88264 | 28 ft | 6 kts | 123° |
| 2026-04-26 08:20 | 7.17807 | 79.88303 | 27 ft | 9 kts | 131° |
| 2026-04-26 08:20 | 7.17747 | 79.88319 | 27 ft | 10 kts | 211° |
| 2026-04-26 08:20 | 7.17689 | 79.88274 | 27 ft | 10 kts | 218° |
| 2026-04-26 08:21 | 7.17626 | 79.88261 | 27 ft | 10 kts | 150° |
| 2026-04-26 08:21 | 7.17578 | 79.88317 | 26 ft | 12 kts | 127° |
| 2026-04-26 08:21 | 7.17556 | 79.88374 | 26 ft | 3 kts | 52° |
| 2026-04-26 08:21 | 7.17581 | 79.88391 | 26 ft | 6 kts | 38° |
| 2026-04-26 08:22 | 7.17607 | 79.88411 | 26 ft | 0 kts | 38° |